Terminal Aerodrome Forecast
Issued by NWS Sterling, VA

Home | Current Version | Previous Version | Text Only | Print | Product List | Glossary On
Versions: 1 2 3 4 5 6 7 8 9 10 11 12 13 14 15 16 17 18 19 20 21
000
FTUS41 KLWX 192338
TAFBWI
TAF
KBWI 192338Z 2000/2106 31018G30KT P6SM BKN050
     FM200300 30013G22KT P6SM SCT050
     FM200600 31012G21KT P6SM FEW050
     FM202300 32010G17KT P6SM FEW250
     FM210400 34006KT P6SM SKC=

USA.gov is the U.S. government's official web portal to all federal, state and local government web resources and services.